Flight Track Log - Related Links

Times and Time Zones

All times are in EST time to prevent confusion due to time zone crossing. See the SVA2351 flight status page for this flight to view local times or setup timezone preferences in your user account.

Time Position Orientation Groundspeed Altitude Reporting Facility
EST Latitude Longitude Course Direction KTS MPH feet Rate Location/Type
Wed 01:29:00 AM 37.9983 31.8482 157° South  Level Estimated
Wed 01:30:00 AM 37.8996 31.9017 157° South  Level Estimated
Wed 01:31:00 AM 37.8008 31.9551 157° South  Level Estimated
Wed 01:32:00 AM 37.7020 32.0083 157° South  Level Estimated
Wed 01:33:00 AM 37.6031 32.0614 157° South  Level Estimated
Wed 01:34:00 AM 37.5043 32.1144 157° South  Level Estimated
Wed 01:35:00 AM 37.4054 32.1672 157° South  Level Estimated
Wed 01:36:00 AM 37.3065 32.2199 157° South  Level Estimated
Wed 01:37:00 AM 37.2076 32.2724 157° South  Level Estimated
Wed 01:38:00 AM 37.1087 32.3248 157° South  Level Estimated
Wed 01:39:00 AM 37.0097 32.3771 157° South  Level Estimated
Wed 01:40:00 AM 36.9107 32.4292 157° South  Level Estimated
Wed 01:41:00 AM 36.8117 32.4813 157° South  Level Estimated
Wed 01:42:00 AM 36.7126 32.5331 157° South  Level Estimated
Wed 01:43:00 AM 36.6136 32.5849 157° South  Level Estimated
Wed 01:44:00 AM 36.5145 32.6365 157° South  Level Estimated
Wed 01:45:00 AM 36.4154 32.6879 157° South  Level Estimated
Wed 01:46:00 AM 36.3163 32.7393 157° South  Level Estimated
Wed 01:47:00 AM 36.2171 32.7905 157° South  Level Estimated
Wed 01:48:00 AM 36.1180 32.8415 157° South  Level Estimated
Wed 01:49:00 AM 36.0188 32.8925 157° South  Level Estimated
Wed 01:50:00 AM 35.9196 32.9433 157° South  Level Estimated
Wed 01:51:00 AM 35.8203 32.9940 157° South  Level Estimated
Wed 01:52:00 AM 35.7211 33.0446 158° South  Level Estimated
Wed 01:53:00 AM 35.6218 33.0950 158° South  Level Estimated
Wed 01:54:00 AM 35.5225 33.1453 158° South  Level Estimated
Wed 01:55:00 AM 35.4232 33.1955 158° South  Level Estimated
Wed 01:56:00 AM 35.3238 33.2456 158° South  Level Estimated
Wed 01:57:00 AM 35.2245 33.2955 158° South  Level Estimated
Wed 01:58:00 AM 35.1251 33.3453 158° South  Level Estimated
Wed 01:59:00 AM 35.0257 33.3950 158° South  Level Estimated
Wed 02:00:00 AM 34.9263 33.4446 158° South  Level Estimated
Wed 02:01:00 AM 34.8268 33.4941 158° South  Level Estimated
Wed 02:02:00 AM 34.7274 33.5434 158° South  Level Estimated
Wed 02:03:00 AM 34.6279 33.5926 158° South  Level Estimated
Wed 02:04:00 AM 34.5284 33.6417 158° South  Level Estimated
Wed 02:05:00 AM 34.4289 33.6907 158° South  Level Estimated
Wed 02:06:00 AM 34.3293 33.7396 158° South  Level Estimated
Wed 02:07:00 AM 34.2298 33.7883 158° South  Level Estimated
Wed 02:08:00 AM 34.1302 33.8370 158° South  Level Estimated
Wed 02:09:00 AM 34.0306 33.8855 158° South  Level Estimated
Wed 02:10:00 AM 33.9310 33.9339 158° South  Level Estimated
Wed 02:11:00 AM 33.8313 33.9822 158° South  Level Estimated
Wed 02:12:00 AM 33.7317 34.0304 158° South  Level Estimated
Wed 02:13:00 AM 33.6320 34.0785 158° South  Level Estimated
Wed 02:14:00 AM 33.5323 34.1264 158° South  Level Estimated
Wed 02:15:00 AM 33.4326 34.1743 158° South  Level Estimated
Wed 02:16:00 AM 33.3329 34.2220 158° South  Level Estimated
Wed 02:17:00 AM 33.2331 34.2696 158° South  Level Estimated
Wed 02:18:00 AM 33.1334 34.3172 158° South  Level Estimated
Wed 02:19:00 AM 33.0336 34.3646 158° South  Level Estimated
Wed 02:20:00 AM 32.9338 34.4119 158° South  Level Estimated
Wed 02:21:00 AM 32.8340 34.4591 158° South  Level Estimated
Wed 02:22:00 AM 32.7341 34.5062 158° South  Level Estimated
Wed 02:23:00 AM 32.6343 34.5532 158° South  Level Estimated
Wed 02:24:00 AM 32.5344 34.6001 158° South  Level Estimated
Wed 02:25:00 AM 32.4345 34.6469 158° South  Level Estimated
Wed 02:26:00 AM 32.3346 34.6935 158° South  Level Estimated
Wed 02:27:00 AM 32.2347 34.7401 158° South  Level Estimated
Wed 02:28:00 AM 32.1348 34.7866 159° South  Level Estimated
Wed 02:29:00 AM 32.0348 34.8330 159° South  Level Estimated
Wed 02:30:00 AM 31.9348 34.8792 159° South  Level Estimated
Wed 02:31:00 AM 31.8348 34.9254 159° South  Level Estimated
Wed 02:32:00 AM 31.7348 34.9715 159° South  Level Estimated
Wed 02:33:00 AM 31.6348 35.0174 159° South  Level Estimated
Wed 02:34:00 AM 31.5348 35.0633 159° South  Level Estimated
Wed 02:35:00 AM 31.4347 35.1091 159° South  Level Estimated
Wed 02:36:00 AM 31.3346 35.1548 159° South  Level Estimated
Wed 02:37:00 AM 31.2346 35.2003 159° South  Level Estimated
Wed 02:38:00 AM 31.1345 35.2458 159° South  Level Estimated
Wed 02:39:00 AM 31.0343 35.2912 159° South  Level Estimated
Wed 02:40:00 AM 30.9342 35.3365 159° South  Level Estimated
Wed 02:41:00 AM 30.8340 35.3817 159° South  Level Estimated
Wed 02:42:00 AM 30.7339 35.4268 159° South  Level Estimated
Wed 02:43:00 AM 30.6337 35.4718 159° South  Level Estimated
Wed 02:44:00 AM 30.5335 35.5167 159° South  Level Estimated
Wed 02:45:00 AM 30.4333 35.5615 159° South  Level Estimated
Wed 02:46:00 AM 30.3330 35.6063 159° South  Level Estimated
Wed 02:47:00 AM 30.2328 35.6509 159° South  Level Estimated
Wed 02:48:00 AM 30.1325 35.6954 159° South  Level Estimated
Wed 02:49:00 AM 30.0323 35.7399 159° South  Level Estimated
Wed 02:50:00 AM 29.9320 35.7843 159° South  Level Estimated
Wed 02:51:00 AM 29.8317 35.8286 159° South  Level Estimated
Wed 02:52:00 AM 29.7314 35.8727 159° South  Level Estimated
Wed 02:53:00 AM 29.6310 35.9169 159° South  Level Estimated
Wed 02:54:00 AM 29.5307 35.9609 159° South  Level Estimated
Wed 02:55:00 AM 29.4303 36.0048 159° South  Level Estimated
Wed 02:56:00 AM 29.3300 36.0486 159° South  Level Estimated
Wed 02:57:00 AM 29.2296 36.0924 159° South  Level Estimated
Wed 02:58:00 AM 29.1292 36.1361 159° South  Level Estimated
Wed 02:59:00 AM 29.0287 36.1796 159° South  Level Estimated
Wed 03:00:00 AM 28.9283 36.2231 159° South  Level Estimated
Wed 03:01:00 AM 28.8279 36.2665 159° South  Level Estimated
Wed 03:02:00 AM 28.7274 36.3099 159° South  Level Estimated
Wed 03:03:00 AM 28.6269 36.3531 159° South  Level Estimated
Wed 03:04:00 AM 28.5264 36.3963 159° South  Level Estimated
Wed 03:05:00 AM 28.4259 36.4394 159° South  Level Estimated
Wed 03:06:00 AM 28.3254 36.4824 159° South  Level Estimated
Wed 03:07:00 AM 28.2249 36.5253 159° South  Level Estimated
Wed 03:08:00 AM 28.1243 36.5681 159° South  Level Estimated
Wed 03:09:00 AM 28.0238 36.6109 159° South  Level Estimated
Wed 03:10:00 AM 27.9232 36.6536 159° South  Level Estimated
Wed 03:11:00 AM 27.8226 36.6962 159° South  Level Estimated
Wed 03:12:00 AM 27.7220 36.7387 159° South  Level Estimated
Wed 03:13:00 AM 27.6214 36.7811 160° South  Level Estimated
Wed 03:14:00 AM 27.5208 36.8235 160° South  Level Estimated
Wed 03:15:00 AM 27.4202 36.8658 160° South  Level Estimated
Wed 03:16:00 AM 27.3195 36.9080 160° South  Level Estimated
Wed 03:17:00 AM 27.2189 36.9501 160° South  Level Estimated
Wed 03:18:00 AM 27.1182 36.9922 160° South  Level Estimated
Wed 03:19:00 AM 27.0175 37.0341 160° South  Level Estimated
Wed 03:20:00 AM 26.9168 37.0760 160° South  Level Estimated
Wed 03:21:00 AM 26.8161 37.1179 160° South  Level Estimated
Wed 03:22:00 AM 26.7154 37.1596 160° South  Level Estimated
Wed 03:23:00 AM 26.6147 37.2013 160° South  Level Estimated
Wed 03:24:00 AM 26.5139 37.2429 160° South  Level Estimated
Wed 03:25:00 AM 26.4131 37.2845 160° South  Level Estimated
Wed 03:26:00 AM 26.3124 37.3259 160° South  Level Estimated
Wed 03:27:00 AM 26.2116 37.3673 160° South  Level Estimated
Wed 03:28:00 AM 26.1108 37.4086 160° South  Level Estimated
Wed 03:29:00 AM 26.0100 37.4499 160° South  Level Estimated
Wed 03:30:00 AM 25.9092 37.4911 160° South  Level Estimated
Wed 03:31:00 AM 25.8083 37.5322 160° South  Level Estimated
Wed 03:32:00 AM 25.7075 37.5732 160° South  Level Estimated
Wed 03:33:00 AM 25.6066 37.6142 160° South  Level Estimated
Wed 03:34:00 AM 25.5058 37.6551 160° South  Level Estimated
Wed 03:35:00 AM 25.4049 37.6959 160° South  Level Estimated
Wed 03:36:00 AM 25.3040 37.7367 160° South  Level Estimated
Wed 03:37:00 AM 25.2031 37.7774 160° South  Level Estimated
Wed 03:38:00 AM 25.1022 37.8180 160° South  Level Estimated
Wed 03:39:00 AM 25.0013 37.8586 160° South  Level Estimated
Wed 03:40:00 AM 24.9004 37.8991 160° South  Level Estimated
Wed 03:41:00 AM 24.7994 37.9395 160° South  Level Estimated
Wed 03:42:00 AM 24.6985 37.9798 160° South  Level Estimated
Wed 03:43:00 AM 24.5975 38.0201 160° South  Level Estimated
Wed 03:44:00 AM 24.4965 38.0604 160° South  Level Estimated
Wed 03:45:00 AM 24.3956 38.1005 160° South  Level Estimated
Wed 03:46:00 AM 24.2946 38.1406 160° South  Level Estimated
Wed 03:47:00 AM 24.1936 38.1807 160° South  Level Estimated
Wed 03:48:00 AM 24.0926 38.2206 160° South  Level Estimated
Wed 03:49:00 AM 23.9915 38.2606 160° South  Level Estimated
Wed 03:50:00 AM 23.8905 38.3004 160° South  Level Estimated
Wed 03:51:00 AM 23.7894 38.3402 160° South  Level Estimated
Wed 03:52:00 AM 23.6884 38.3799 160° South  Level Estimated
Wed 03:53:00 AM 23.5873 38.4196 160° South  Level Estimated
Wed 03:54:00 AM 23.4862 38.4592 160° South  Level Estimated
Wed 03:55:00 AM 23.3851 38.4987 160° South  Level Estimated
Wed 03:56:00 AM 23.2840 38.5382 160° South  Level Estimated
Wed 03:57:00 AM 23.1829 38.5776 160° South  Level Estimated
Wed 03:58:00 AM 23.0818 38.6170 160° South  Level Estimated
Wed 03:59:00 AM 22.9807 38.6563 160° South  Level Estimated
Wed 04:00:00 AM 22.8795 38.6955 160° South  Level Estimated
Wed 04:01:00 AM 22.7784 38.7347 160° South  Level Estimated
Wed 04:02:00 AM 22.6772 38.7738 160° South  Level Estimated
Wed 04:03:00 AM 22.5761 38.8129 160° South  Level Estimated
Wed 04:04:00 AM 22.4749 38.8519 160° South  Level Estimated
Wed 04:05:00 AM 22.3737 38.8909 160° South  Level Estimated
Wed 04:06:00 AM 22.2725 38.9298 160° South  Level Estimated
Wed 04:07:00 AM 22.1713 38.9686 160° South  Level Estimated
Wed 04:08:00 AM 22.0701 39.0074 160° South  Level Estimated
Wed 04:09:00 AM 21.9689 39.0461 160° South  Level Estimated
Wed 04:10:00 AM 21.8677 39.0848 160° South  Level Estimated
Wed 04:11:00 AM 21.7664 39.1234 160° South  Level Estimated
Wed 04:12:00 AM 21.6796 39.1565 161° South  Level Estimated
Wed 04:13:00 AM 21.6796 39.1565 317° Northwest  Level Estimated
Wed 04:14:00 AM 21.6796 39.1565 317° Northwest  Level Estimated
Wed 04:15:00 AM 21.6796 39.1565 317° Northwest  Level Estimated
Wed 04:16:00 AM 21.6796 39.1565 317° Northwest  Level Estimated
Wed 04:17:00 AM 21.6796 39.1565 317° Northwest  Level Estimated
Wed 04:18:00 AM 21.6796 39.1565 317° Northwest  Level Estimated
Wed 04:19:00 AM 21.6796 39.1565 317° Northwest  Level Estimated
Wed 04:20:00 AM 21.6796 39.1565 317° Northwest  Level Estimated
Wed 04:21:00 AM 21.6796 39.1565 317° Northwest  Level Estimated
Wed 04:22:00 AM 21.6796 39.1565 317° Northwest  Level Estimated
Wed 04:23:00 AM 21.6796 39.1565 317° Northwest  Level Estimated
Wed 04:24:00 AM 21.6796 39.1565 317° Northwest  Level Estimated
Wed 04:25:00 AM 21.6796 39.1565 317° Northwest  Level Estimated
Wed 04:26:00 AM 21.6796 39.1565 317° Northwest  Level Estimated
Wed 04:27:00 AM 21.6796 39.1565 317° Northwest  Level Estimated
Wed 04:28:00 AM 21.6796 39.1565 317° Northwest  Level Estimated
Wed 04:29:00 AM 21.6796 39.1565 317° Northwest  Level Estimated
Wed 04:30:00 AM 21.6796 39.1565 317° Northwest  Level Estimated
Wed 04:31:00 AM 21.6796 39.1565 317° Northwest  Level Estimated
Wed 04:32:00 AM 21.6796 39.1565 317° Northwest  Level Estimated
Wed 04:33:00 AM 21.6796 39.1565 317° Northwest  Level Estimated
Wed 04:34:00 AM 21.6796 39.1565 317° Northwest  Level Estimated
Wed 04:35:00 AM 21.6796 39.1565 317° Northwest  Level Estimated
Wed 04:36:00 AM 21.6796 39.1565 317° Northwest  Level Estimated
Wed 04:37:00 AM 21.6796 39.1565 317° Northwest  Level Estimated
Wed 04:38:00 AM 21.6796 39.1565 317° Northwest  Level Estimated
Wed 04:39:00 AM 21.6796 39.1565 317° Northwest  Level Estimated
Wed 04:40:00 AM 21.6796 39.1565 317° Northwest  Level Estimated
Wed 04:41:00 AM 21.6796 39.1565 317° Northwest  Level Estimated

Login

Don't have an account? Register now (free) for customized features, flight alerts, and more!